ADDS TAF Data INFO
IDs: Format: Raw Decoded Include METARs

Data at: 0151 UTC 17 Oct 2017

Region: TOP
KATL 170148Z 1702/1806 01012KT P6SM SCT250
  FM170600 05007KT P6SM SCT250
  FM171400 07012KT P6SM SKC
  FM172300 08005KT P6SM SKC


KBOS 162320Z 1700/1806 32010G20KT P6SM SCT150 BKN250
  FM170400 33009KT P6SM FEW250
  FM172000 21006KT P6SM SKC
  FM180400 23007KT P6SM SKC


KBWI 162320Z 1700/1806 30005KT P6SM SKC
  FM170600 35004KT P6SM SKC


KCLE 162320Z 1700/1806 30006KT P6SM SCT060
  FM170200 19004KT P6SM SKC
  FM171600 22014G22KT P6SM SKC


KCLT 162320Z 1700/1724 01009KT P6SM FEW250
  FM171500 03010G16KT P6SM SKC
  FM172000 04006KT P6SM SKC


KCVG 162340Z 1700/1806 VRB03KT P6SM SKC
  FM171400 20007KT P6SM SKC
  FM172300 VRB04KT P6SM FEW250


KDCA 162320Z 1700/1724 33011KT P6SM SKC
  FM170700 35005KT P6SM SKC


KDEN 162337Z 1700/1806 29008KT P6SM FEW150 SCT220
  FM170200 VRB05KT P6SM SCT220
  FM170400 21010KT P6SM FEW220
  FM172000 15008KT P6SM SCT220
  FM180100 19010KT P6SM SCT220


KDFW 162325Z 1700/1806 03006KT P6SM SKC
  FM170600 14006KT P6SM SKC


KDTW 162323Z 1700/1806 23005KT P6SM BKN080
  FM170200 23005KT P6SM SCT250
  FM171600 23013G23KT P6SM SKC
  FM172300 23013KT P6SM BKN250


KEWR 162320Z 1700/1806 33015G21KT P6SM FEW050 BKN200
  FM170100 33012KT P6SM SKC
  FM170400 34008KT P6SM SKC
  FM171700 29006KT P6SM SKC
  FM172000 23006KT P6SM SKC
  FM180200 25005KT P6SM SKC


KFLL 162328Z 1700/1724 11007KT P6SM FEW020 FEW080 SCT250
  FM170200 VRB03KT P6SM FEW020 SCT250
  FM171500 08009KT P6SM VCSH SCT025 SCT060 SCT250


KIAD 162320Z 1700/1806 33008KT P6SM SKC
  FM170600 34004KT P6SM SKC


KIAH 162320Z 1700/1806 01006KT P6SM FEW250
  FM180200 VRB02KT P6SM SKC


KJFK 162320Z 1700/1806 33013KT P6SM FEW040 BKN200
  FM170100 34011KT P6SM SKC
  FM170500 36010KT P6SM SKC
  FM171600 30005KT P6SM SKC
  FM172000 22006KT P6SM SKC
  FM180200 25007KT P6SM SKC


KLAS 162320Z 1700/1806 06005KT P6SM SCT250
  FM170200 22007KT P6SM SCT250
  FM171600 VRB05KT P6SM SCT250
  FM172000 07006KT P6SM BKN250
  FM180300 24006KT P6SM BKN250


KLAX 162351Z 1700/1806 26012KT P6SM SCT250
  FM170200 25006KT P6SM SCT250
  FM171100 08003KT P6SM BKN150 BKN200
  FM172000 26012KT P6SM SCT100 BKN150
  FM180400 VRB03KT P6SM SCT100 BKN150


KLGA 162320Z 1700/1724 32012G19KT P6SM SCT050 BKN200
  FM170100 33012KT P6SM SKC
  FM170400 35011KT P6SM SKC
  FM171100 01009KT P6SM SKC
  FM171700 30006KT P6SM SKC
  FM172000 23007KT P6SM SKC


KMCO 162343Z 1700/1724 07003KT P6SM BKN250
  FM171000 35005KT P6SM VCSH SCT020 BKN080
  FM171400 02010KT P6SM VCSH SCT025 BKN040
  TEMPO 1714/1718 3SM SHRA BKN025


KMDW 162330Z 1700/1724 22007KT P6SM FEW250
  FM171500 23015G24KT P6SM SKC


KMEM 162327Z 1700/1724 03009KT P6SM SKC
  FM170200 04004KT P6SM SKC
  FM171400 09006KT P6SM SCT250


KMIA 162328Z 1700/1724 09007KT P6SM FEW035 FEW070 SCT250
  FM170200 VRB03KT P6SM FEW020 SCT250
  FM171700 09008KT P6SM VCSH SCT025 SCT060 SCT250


KMSP 162320Z 1700/1806 18009KT P6SM FEW250
  FM170800 23004KT P6SM SKC
  FM171400 19007KT P6SM FEW250


KORD 162330Z 1700/1806 22007KT P6SM FEW250
  FM171500 23015G24KT P6SM SKC
  FM180000 21010KT P6SM SKC


KPDX 162340Z 1700/1724 VRB04KT P6SM SCT250
  FM171300 15006KT P6SM SCT060 BKN100
  FM171800 20010KT P6SM -RA BKN035 OVC050
  FM172300 25008KT P6SM VCSH SCT025 BKN050


KPHL 162320Z 1700/1806 35007KT P6SM SKC
  FM171700 30006KT P6SM SKC
  FM172100 24005KT P6SM SKC


KPHX 170130Z 1702/1806 23005KT P6SM FEW250
  TEMPO 1702/1704 VRB04KT
  FM170400 10007KT P6SM SCT250
  FM172300 24005KT P6SM BKN250
  FM180500 10005KT P6SM SCT250


KPIT 162333Z 1700/1806 33003KT P6SM SKC
  FM171400 22003KT P6SM FEW250


KSAN 162327Z 1700/1806 32010KT P6SM FEW250
  FM170100 VRB03KT P6SM FEW250
  FM171900 29010KT P6SM SCT200
  FM180100 VRB04KT P6SM SCT200


KSEA 162330Z 1700/1806 19010G18KT P6SM FEW040 BKN120 BKN250
  FM170300 21010G18KT P6SM SCT040 BKN100 OVC200
  FM170900 20012G20KT P6SM VCSH BKN030 OVC045
  FM171200 20013G22KT P6SM VCSH BKN020 OVC030
  FM171600 23014G24KT P6SM -RA OVC020
  FM172100 20008KT P6SM -SHRA BKN030


KSFO 162336Z 1700/1806 VRB04KT P6SM SCT180 BKN250
  FM170200 26006KT P6SM FEW180 SCT250
  FM170800 VRB04KT P6SM FEW120 SCT250
  FM172200 28010KT P6SM FEW100 BKN250
  FM180400 26004KT P6SM SCT250


KSLC 162333Z 1700/1806 30007KT P6SM SCT200
  FM170300 15006KT P6SM SKC
  FM171900 33007KT P6SM SKC
  FM180300 15006KT P6SM SKC


KSTL 162339Z 1700/1806 19004KT P6SM SKC
  FM171500 20008KT P6SM SKC
  FM180000 16004KT P6SM SKC


KTPA 162332Z 1700/1724 36005KT P6SM SCT050 BKN250
  FM170300 03004KT P6SM VCSH SCT040 SCT150 BKN250
  FM170900 04005KT P6SM SCT025 BKN150
  FM171400 05007KT P6SM SCT025 OVC130
  FM171800 05010KT P6SM VCSH SCT025 BKN040 OVC130